createdAt,value
2022-08-28T00:04:22.595Z,19.45
2022-08-28T00:09:26.351Z,19.39
2022-08-28T00:14:29.962Z,19.30
2022-08-28T00:19:38.529Z,19.27
2022-08-28T00:24:43.444Z,19.23
2022-08-28T00:29:47.047Z,19.28
2022-08-28T00:34:51.445Z,19.30
2022-08-28T00:39:55.685Z,19.35
2022-08-28T00:45:00.303Z,19.38
2022-08-28T00:50:07.034Z,19.32
2022-08-28T00:55:19.581Z,19.28
2022-08-28T01:00:35.152Z,19.23
2022-08-28T01:05:43.931Z,19.12
2022-08-28T01:10:54.526Z,18.98
2022-08-28T01:15:59.638Z,18.90
2022-08-28T01:21:20.184Z,18.85
2022-08-28T01:26:28.615Z,18.74
2022-08-28T01:31:33.399Z,18.67
2022-08-28T01:36:38.002Z,18.66
2022-08-28T01:41:46.727Z,18.72
2022-08-28T01:46:56.313Z,18.67
2022-08-28T01:52:01.144Z,18.51
2022-08-28T01:57:07.124Z,18.41
2022-08-28T02:02:11.253Z,18.41
2022-08-28T02:07:15.383Z,18.38
2022-08-28T02:12:18.967Z,18.36
2022-08-28T02:17:22.618Z,18.33
2022-08-28T02:22:26.871Z,18.36
2022-08-28T02:27:31.344Z,18.46
2022-08-28T02:32:35.628Z,18.65
2022-08-28T02:37:40.168Z,18.77
2022-08-28T02:42:44.857Z,18.81
2022-08-28T02:47:52.450Z,18.79
2022-08-28T02:52:56.582Z,18.64
2022-08-28T02:58:00.525Z,18.50
2022-08-28T03:03:04.201Z,18.37
2022-08-28T03:08:08.232Z,18.19
2022-08-28T03:13:11.952Z,18.08
2022-08-28T03:18:30.662Z,18.03
2022-08-28T03:23:34.852Z,18.04
2022-08-28T03:28:44.152Z,18.03
2022-08-28T03:33:48.852Z,17.99
2022-08-28T03:38:56.029Z,17.91
2022-08-28T03:44:02.034Z,17.81
2022-08-28T03:49:06.529Z,17.74
2022-08-28T03:54:10.054Z,17.69
2022-08-28T03:59:13.696Z,17.73
2022-08-28T04:04:17.315Z,17.82
2022-08-28T04:09:20.935Z,17.97
2022-08-28T04:14:24.425Z,18.11
2022-08-28T04:19:28.170Z,18.09
2022-08-28T04:24:31.941Z,18.05
2022-08-28T04:29:35.612Z,18.06
2022-08-28T04:34:39.542Z,18.05
2022-08-28T04:39:43.150Z,18.03
2022-08-28T04:44:46.774Z,18.05
2022-08-28T04:49:50.615Z,18.14
2022-08-28T04:54:54.629Z,18.32
2022-08-28T04:59:59.160Z,18.52
2022-08-28T05:05:03.610Z,18.70
2022-08-28T05:10:08.291Z,18.87
2022-08-28T05:15:12.050Z,19.03
2022-08-28T05:20:15.666Z,19.18
2022-08-28T05:25:19.615Z,19.34
2022-08-28T05:30:23.540Z,19.50
2022-08-28T05:35:28.550Z,19.66
2022-08-28T05:40:32.616Z,19.82
2022-08-28T05:45:36.722Z,19.99
2022-08-28T05:50:47.162Z,20.17
2022-08-28T05:55:51.831Z,20.35
2022-08-28T06:01:03.915Z,20.51
2022-08-28T06:06:09.762Z,20.67
2022-08-28T06:11:13.810Z,20.79
2022-08-28T06:16:19.445Z,20.93
2022-08-28T06:21:24.286Z,21.10
2022-08-28T06:26:27.969Z,21.25
2022-08-28T06:31:33.466Z,21.38
2022-08-28T06:36:45.289Z,21.51
2022-08-28T06:41:48.960Z,21.65
2022-08-28T06:46:54.686Z,21.83
2022-08-28T06:51:58.226Z,22.01
2022-08-28T06:57:01.811Z,22.22
2022-08-28T07:02:06.856Z,22.47
2022-08-28T07:07:15.692Z,22.67
2022-08-28T07:12:36.130Z,22.95
2022-08-28T07:17:40.050Z,23.19
2022-08-28T07:22:44.181Z,23.38
2022-08-28T07:27:48.722Z,23.59
2022-08-28T07:32:52.650Z,23.86
2022-08-28T07:37:56.575Z,24.16
2022-08-28T07:43:18.426Z,24.39
2022-08-28T07:48:22.447Z,24.62
2022-08-28T07:53:26.631Z,24.79
2022-08-28T07:58:30.314Z,25.00
2022-08-28T08:03:34.038Z,25.28
2022-08-28T08:08:37.742Z,25.50
2022-08-28T08:13:41.884Z,25.63
2022-08-28T08:18:48.561Z,25.84
2022-08-28T08:23:52.459Z,26.08
2022-08-28T08:28:57.232Z,26.33
2022-08-28T08:34:04.849Z,26.53
2022-08-28T08:39:09.759Z,26.77
2022-08-28T08:44:22.222Z,27.00
2022-08-28T08:49:40.586Z,27.14
2022-08-28T08:55:02.032Z,27.32
2022-08-28T09:00:15.679Z,27.51
2022-08-28T09:05:26.760Z,27.75
2022-08-28T09:10:48.593Z,27.89
2022-08-28T09:15:52.661Z,28.01
2022-08-28T09:21:00.255Z,28.13
2022-08-28T09:26:12.930Z,28.23
2022-08-28T09:31:37.064Z,28.34
2022-08-28T09:36:40.809Z,28.50
2022-08-28T09:42:05.831Z,28.67
2022-08-28T09:47:09.551Z,28.76
2022-08-28T09:52:25.111Z,28.88
2022-08-28T09:57:29.079Z,29.01
2022-08-28T10:02:58.584Z,29.10
2022-08-28T10:08:29.761Z,29.28
2022-08-28T10:14:00.211Z,29.44
2022-08-28T10:19:39.492Z,29.69
2022-08-28T10:25:27.218Z,29.63
2022-08-28T10:30:36.182Z,29.58
2022-08-28T10:35:51.797Z,29.76
2022-08-28T10:41:05.018Z,29.97
2022-08-28T10:46:44.408Z,30.11
2022-08-28T10:51:58.524Z,29.98
2022-08-28T10:57:23.548Z,29.94
2022-08-28T11:02:30.317Z,30.19
2022-08-28T11:07:51.336Z,30.31
2022-08-28T11:12:55.605Z,30.27
2022-08-28T11:18:14.268Z,30.19
2022-08-28T11:23:25.365Z,30.18
2022-08-28T11:28:35.639Z,30.17
2022-08-28T11:33:44.826Z,30.14
2022-08-28T11:38:58.133Z,30.12
2022-08-28T11:44:13.449Z,30.14
2022-08-28T11:49:32.413Z,30.29
2022-08-28T11:54:54.658Z,30.31
2022-08-28T12:00:31.141Z,30.42
2022-08-28T12:05:34.637Z,30.42
2022-08-28T12:10:38.144Z,30.22
2022-08-28T12:15:43.359Z,30.35
2022-08-28T12:21:13.029Z,30.36
2022-08-28T12:26:38.930Z,30.20
2022-08-28T12:32:14.866Z,30.16
2022-08-28T12:37:30.384Z,30.35
2022-08-28T12:42:40.381Z,30.60
2022-08-28T12:47:46.016Z,30.79
2022-08-28T12:52:54.855Z,31.09
2022-08-28T12:57:58.971Z,31.27
2022-08-28T13:03:03.934Z,31.38
2022-08-28T13:08:13.080Z,31.37
2022-08-28T13:13:31.140Z,31.00
2022-08-28T13:18:55.441Z,30.72
2022-08-28T13:24:23.948Z,30.53
2022-08-28T13:29:28.383Z,30.53
2022-08-28T13:34:37.229Z,30.67
2022-08-28T13:39:40.846Z,30.71
2022-08-28T13:44:57.155Z,30.57
2022-08-28T13:50:00.784Z,30.46
2022-08-28T13:55:05.739Z,30.36
2022-08-28T14:00:12.559Z,30.27
2022-08-28T14:05:16.450Z,30.22
2022-08-28T14:10:20.371Z,30.26
2022-08-28T14:15:23.993Z,30.39
2022-08-28T14:20:29.329Z,30.38
2022-08-28T14:25:35.909Z,30.19
2022-08-28T14:30:49.498Z,30.04
2022-08-28T14:35:53.322Z,29.84
2022-08-28T14:40:57.153Z,29.56
2022-08-28T14:46:00.952Z,29.44
2022-08-28T14:51:04.951Z,29.52
2022-08-28T14:56:09.554Z,29.62
2022-08-28T15:01:25.296Z,29.64
2022-08-28T15:06:41.573Z,29.84
2022-08-28T15:11:45.655Z,30.06
2022-08-28T15:16:49.892Z,30.20
2022-08-28T15:21:56.365Z,30.28
2022-08-28T15:27:00.736Z,30.28
2022-08-28T15:32:05.098Z,30.17
2022-08-28T15:37:08.727Z,30.16
2022-08-28T15:42:12.918Z,30.24
2022-08-28T15:47:16.803Z,30.23
2022-08-28T15:52:20.584Z,30.23
2022-08-28T15:57:24.883Z,30.01
2022-08-28T16:02:28.780Z,29.35
2022-08-28T16:07:32.548Z,28.62
2022-08-28T16:12:40.429Z,27.99
2022-08-28T16:17:44.082Z,27.49
2022-08-28T16:22:47.825Z,27.01
2022-08-28T16:27:51.670Z,26.44
2022-08-28T16:32:55.144Z,26.05
2022-08-28T16:37:59.277Z,25.79
2022-08-28T16:43:02.902Z,25.54
2022-08-28T16:48:06.633Z,25.15
2022-08-28T16:53:12.244Z,24.87
2022-08-28T16:58:17.161Z,24.74
2022-08-28T17:03:26.194Z,24.51
2022-08-28T17:08:30.405Z,24.24
2022-08-28T17:13:35.877Z,24.12
2022-08-28T17:18:48.242Z,24.06
2022-08-28T17:23:57.656Z,23.96
2022-08-28T17:29:01.488Z,23.91
2022-08-28T17:34:07.640Z,23.79
2022-08-28T17:39:16.695Z,23.63
2022-08-28T17:44:20.696Z,23.50
2022-08-28T17:49:24.335Z,23.36
2022-08-28T17:54:28.497Z,23.25
2022-08-28T17:59:33.099Z,23.20
2022-08-28T18:04:37.226Z,23.19
2022-08-28T18:09:41.177Z,23.13
2022-08-28T18:14:44.892Z,23.11
2022-08-28T18:19:48.613Z,23.08
2022-08-28T18:24:53.256Z,23.05
2022-08-28T18:29:56.980Z,23.04
2022-08-28T18:35:00.597Z,22.98
2022-08-28T18:40:05.567Z,22.93
2022-08-28T18:45:10.542Z,22.92
2022-08-28T18:50:14.459Z,22.99
2022-08-28T18:55:20.394Z,22.99
2022-08-28T19:00:25.566Z,22.97
2022-08-28T19:05:29.316Z,22.94
2022-08-28T19:10:34.891Z,22.90
2022-08-28T19:15:39.049Z,22.89
2022-08-28T19:20:42.893Z,22.87
2022-08-28T19:25:46.905Z,22.84
2022-08-28T19:30:50.817Z,22.81
2022-08-28T19:35:55.382Z,22.81
2022-08-28T19:40:59.413Z,22.73
2022-08-28T19:46:10.451Z,22.71
2022-08-28T19:51:25.067Z,22.70
2022-08-28T19:56:31.876Z,22.71
2022-08-28T20:01:41.211Z,22.66
2022-08-28T20:06:46.106Z,22.68
2022-08-28T20:11:50.150Z,22.68
2022-08-28T20:16:55.466Z,22.69
2022-08-28T20:21:59.079Z,22.68
2022-08-28T20:27:02.804Z,22.68
2022-08-28T20:32:06.932Z,22.67
2022-08-28T20:37:10.764Z,22.64
2022-08-28T20:42:14.679Z,22.63
2022-08-28T20:47:19.082Z,22.68
2022-08-28T20:52:23.582Z,22.71
2022-08-28T20:57:27.610Z,22.63
2022-08-28T21:02:31.689Z,22.57
2022-08-28T21:07:35.647Z,22.53
2022-08-28T21:12:40.444Z,22.42
2022-08-28T21:17:44.208Z,22.35
2022-08-28T21:22:49.297Z,22.32
2022-08-28T21:27:53.582Z,22.33
2022-08-28T21:32:57.199Z,22.27
2022-08-28T21:38:00.700Z,22.25
2022-08-28T21:43:04.450Z,22.12
2022-08-28T21:48:08.337Z,22.01
2022-08-28T21:53:12.138Z,21.92
2022-08-28T21:58:18.701Z,21.79
2022-08-28T22:03:22.849Z,21.55
2022-08-28T22:08:28.781Z,21.35
2022-08-28T22:13:32.508Z,21.15
2022-08-28T22:18:37.258Z,20.97
2022-08-28T22:23:41.781Z,20.85
2022-08-28T22:28:46.632Z,20.79
2022-08-28T22:33:50.875Z,20.74
2022-08-28T22:38:56.183Z,20.61
2022-08-28T22:43:59.860Z,20.51
2022-08-28T22:49:04.696Z,20.38
2022-08-28T22:54:08.758Z,20.29
2022-08-28T22:59:12.453Z,20.25
2022-08-28T23:04:16.552Z,20.23
2022-08-28T23:09:23.516Z,20.16
2022-08-28T23:14:27.142Z,20.13
2022-08-28T23:19:31.232Z,20.19
2022-08-28T23:24:38.483Z,20.19
2022-08-28T23:29:42.053Z,20.18
2022-08-28T23:34:45.668Z,20.17
2022-08-28T23:39:49.882Z,20.15
2022-08-28T23:44:54.532Z,20.14
2022-08-28T23:49:58.371Z,20.16
2022-08-28T23:55:03.313Z,20.19
